sensor_id;sensor_type;location;lat;lon;timestamp;P1;P2;P0
79689;PMS5003;69156;55.932;-3.238;2023-07-16T00:02:02;0;0;
79689;PMS5003;69156;55.932;-3.238;2023-07-16T00:04:28;1;1;
79689;PMS5003;69156;55.932;-3.238;2023-07-16T00:06:53;1;1;
79689;PMS5003;69156;55.932;-3.238;2023-07-16T00:09:19;1;1;
79689;PMS5003;69156;55.932;-3.238;2023-07-16T00:11:45;0;0;
79689;PMS5003;69156;55.932;-3.238;2023-07-16T00:14:10;1;1;
79689;PMS5003;69156;55.932;-3.238;2023-07-16T00:16:35;1;1;
79689;PMS5003;69156;55.932;-3.238;2023-07-16T00:19:01;1;1;
79689;PMS5003;69156;55.932;-3.238;2023-07-16T00:21:27;1;1;
79689;PMS5003;69156;55.932;-3.238;2023-07-16T00:23:52;1;1;
79689;PMS5003;69156;55.932;-3.238;2023-07-16T00:26:18;1;1;
79689;PMS5003;69156;55.932;-3.238;2023-07-16T00:28:44;1;1;
79689;PMS5003;69156;55.932;-3.238;2023-07-16T00:31:10;0;0;
79689;PMS5003;69156;55.932;-3.238;2023-07-16T00:33:34;0;0;
79689;PMS5003;69156;55.932;-3.238;2023-07-16T00:36:00;1;0;
79689;PMS5003;69156;55.932;-3.238;2023-07-16T00:38:26;0;0;
79689;PMS5003;69156;55.932;-3.238;2023-07-16T00:40:51;0;0;
79689;PMS5003;69156;55.932;-3.238;2023-07-16T00:43:16;0;0;
79689;PMS5003;69156;55.932;-3.238;2023-07-16T00:45:43;1;1;
79689;PMS5003;69156;55.932;-3.238;2023-07-16T00:48:07;1;1;
79689;PMS5003;69156;55.932;-3.238;2023-07-16T00:50:34;0;0;
79689;PMS5003;69156;55.932;-3.238;2023-07-16T00:52:59;0;0;
79689;PMS5003;69156;55.932;-3.238;2023-07-16T00:55:24;1;1;
79689;PMS5003;69156;55.932;-3.238;2023-07-16T00:57:50;1;1;
79689;PMS5003;69156;55.932;-3.238;2023-07-16T01:00:15;0;0;
79689;PMS5003;69156;55.932;-3.238;2023-07-16T01:02:41;2;2;
79689;PMS5003;69156;55.932;-3.238;2023-07-16T01:05:06;0;0;
79689;PMS5003;69156;55.932;-3.238;2023-07-16T01:07:32;1;1;
79689;PMS5003;69156;55.932;-3.238;2023-07-16T01:09:57;2;1;
79689;PMS5003;69156;55.932;-3.238;2023-07-16T01:12:23;1;1;
79689;PMS5003;69156;55.932;-3.238;2023-07-16T01:14:49;1;1;
79689;PMS5003;69156;55.932;-3.238;2023-07-16T01:17:15;1;1;
79689;PMS5003;69156;55.932;-3.238;2023-07-16T01:19:40;2;2;
79689;PMS5003;69156;55.932;-3.238;2023-07-16T01:22:13;1;1;
79689;PMS5003;69156;55.932;-3.238;2023-07-16T01:24:40;1;1;
79689;PMS5003;69156;55.932;-3.238;2023-07-16T01:27:02;4;3;
79689;PMS5003;69156;55.932;-3.238;2023-07-16T01:29:28;2;2;
79689;PMS5003;69156;55.932;-3.238;2023-07-16T01:31:46;3;2;
79689;PMS5003;69156;55.932;-3.238;2023-07-16T01:34:12;2;2;
79689;PMS5003;69156;55.932;-3.238;2023-07-16T01:36:37;2;2;
79689;PMS5003;69156;55.932;-3.238;2023-07-16T01:39:03;3;2;
79689;PMS5003;69156;55.932;-3.238;2023-07-16T01:41:29;3;3;
79689;PMS5003;69156;55.932;-3.238;2023-07-16T01:43:54;2;2;
79689;PMS5003;69156;55.932;-3.238;2023-07-16T01:46:20;1;1;
79689;PMS5003;69156;55.932;-3.238;2023-07-16T01:48:45;1;1;
79689;PMS5003;69156;55.932;-3.238;2023-07-16T01:51:11;2;2;
79689;PMS5003;69156;55.932;-3.238;2023-07-16T01:53:36;1;1;
79689;PMS5003;69156;55.932;-3.238;2023-07-16T01:56:01;2;2;
79689;PMS5003;69156;55.932;-3.238;2023-07-16T01:58:26;1;1;
79689;PMS5003;69156;55.932;-3.238;2023-07-16T02:00:52;1;1;
79689;PMS5003;69156;55.932;-3.238;2023-07-16T02:03:17;1;1;
79689;PMS5003;69156;55.932;-3.238;2023-07-16T02:05:43;2;2;
79689;PMS5003;69156;55.932;-3.238;2023-07-16T02:08:09;1;1;
79689;PMS5003;69156;55.932;-3.238;2023-07-16T02:10:34;2;2;
79689;PMS5003;69156;55.932;-3.238;2023-07-16T02:13:00;2;2;
79689;PMS5003;69156;55.932;-3.238;2023-07-16T02:15:25;2;2;
79689;PMS5003;69156;55.932;-3.238;2023-07-16T02:17:51;3;3;
79689;PMS5003;69156;55.932;-3.238;2023-07-16T02:20:17;3;3;
79689;PMS5003;69156;55.932;-3.238;2023-07-16T02:22:42;2;2;
79689;PMS5003;69156;55.932;-3.238;2023-07-16T02:25:07;2;2;
79689;PMS5003;69156;55.932;-3.238;2023-07-16T02:27:34;3;3;
79689;PMS5003;69156;55.932;-3.238;2023-07-16T02:29:59;2;2;
79689;PMS5003;69156;55.932;-3.238;2023-07-16T02:32:24;2;2;
79689;PMS5003;69156;55.932;-3.238;2023-07-16T02:34:50;4;3;
79689;PMS5003;69156;55.932;-3.238;2023-07-16T02:37:15;3;3;
79689;PMS5003;69156;55.932;-3.238;2023-07-16T02:39:41;1;1;
79689;PMS5003;69156;55.932;-3.238;2023-07-16T02:42:05;3;3;
79689;PMS5003;69156;55.932;-3.238;2023-07-16T02:44:31;3;3;
79689;PMS5003;69156;55.932;-3.238;2023-07-16T02:46:57;4;4;
79689;PMS5003;69156;55.932;-3.238;2023-07-16T02:49:23;5;5;
79689;PMS5003;69156;55.932;-3.238;2023-07-16T02:51:47;2;2;
79689;PMS5003;69156;55.932;-3.238;2023-07-16T02:54:14;2;2;
79689;PMS5003;69156;55.932;-3.238;2023-07-16T02:56:38;3;3;
79689;PMS5003;69156;55.932;-3.238;2023-07-16T02:59:04;2;2;
79689;PMS5003;69156;55.932;-3.238;2023-07-16T03:01:30;5;5;
79689;PMS5003;69156;55.932;-3.238;2023-07-16T03:03:55;3;3;
79689;PMS5003;69156;55.932;-3.238;2023-07-16T03:06:21;3;2;
79689;PMS5003;69156;55.932;-3.238;2023-07-16T03:08:47;3;3;
79689;PMS5003;69156;55.932;-3.238;2023-07-16T03:11:12;5;5;
79689;PMS5003;69156;55.932;-3.238;2023-07-16T03:13:37;3;3;
79689;PMS5003;69156;55.932;-3.238;2023-07-16T03:16:03;4;4;
79689;PMS5003;69156;55.932;-3.238;2023-07-16T03:18:29;5;5;
79689;PMS5003;69156;55.932;-3.238;2023-07-16T03:20:53;5;5;
79689;PMS5003;69156;55.932;-3.238;2023-07-16T03:23:19;4;4;
79689;PMS5003;69156;55.932;-3.238;2023-07-16T03:25:44;6;6;
79689;PMS5003;69156;55.932;-3.238;2023-07-16T03:28:09;3;3;
79689;PMS5003;69156;55.932;-3.238;2023-07-16T03:30:35;3;3;
79689;PMS5003;69156;55.932;-3.238;2023-07-16T03:33:00;4;4;
79689;PMS5003;69156;55.932;-3.238;2023-07-16T03:35:26;4;3;
79689;PMS5003;69156;55.932;-3.238;2023-07-16T03:37:51;4;4;
79689;PMS5003;69156;55.932;-3.238;2023-07-16T03:40:17;3;3;
79689;PMS5003;69156;55.932;-3.238;2023-07-16T03:42:42;4;4;
79689;PMS5003;69156;55.932;-3.238;2023-07-16T03:45:07;4;4;
79689;PMS5003;69156;55.932;-3.238;2023-07-16T03:47:32;3;3;
79689;PMS5003;69156;55.932;-3.238;2023-07-16T03:49:57;4;4;
79689;PMS5003;69156;55.932;-3.238;2023-07-16T03:52:23;4;4;
79689;PMS5003;69156;55.932;-3.238;2023-07-16T03:54:48;3;3;
79689;PMS5003;69156;55.932;-3.238;2023-07-16T03:57:14;4;4;
79689;PMS5003;69156;55.932;-3.238;2023-07-16T03:59:39;3;3;
79689;PMS5003;69156;55.932;-3.238;2023-07-16T04:02:04;2;2;
79689;PMS5003;69156;55.932;-3.238;2023-07-16T04:04:29;4;4;
79689;PMS5003;69156;55.932;-3.238;2023-07-16T04:06:55;4;4;
79689;PMS5003;69156;55.932;-3.238;2023-07-16T04:09:20;3;3;
79689;PMS5003;69156;55.932;-3.238;2023-07-16T04:11:46;4;4;
79689;PMS5003;69156;55.932;-3.238;2023-07-16T04:14:12;4;4;
79689;PMS5003;69156;55.932;-3.238;2023-07-16T04:16:37;3;3;
79689;PMS5003;69156;55.932;-3.238;2023-07-16T04:19:03;6;5;
79689;PMS5003;69156;55.932;-3.238;2023-07-16T04:21:29;3;3;
79689;PMS5003;69156;55.932;-3.238;2023-07-16T04:23:54;5;5;
79689;PMS5003;69156;55.932;-3.238;2023-07-16T04:26:20;8;7;
79689;PMS5003;69156;55.932;-3.238;2023-07-16T04:28:45;3;3;
79689;PMS5003;69156;55.932;-3.238;2023-07-16T04:31:10;4;4;
79689;PMS5003;69156;55.932;-3.238;2023-07-16T04:33:36;4;4;
79689;PMS5003;69156;55.932;-3.238;2023-07-16T04:36:01;4;4;
79689;PMS5003;69156;55.932;-3.238;2023-07-16T04:38:26;6;6;
79689;PMS5003;69156;55.932;-3.238;2023-07-16T04:40:52;5;5;
79689;PMS5003;69156;55.932;-3.238;2023-07-16T04:43:18;6;5;
79689;PMS5003;69156;55.932;-3.238;2023-07-16T04:45:44;5;4;
79689;PMS5003;69156;55.932;-3.238;2023-07-16T04:48:09;4;4;
79689;PMS5003;69156;55.932;-3.238;2023-07-16T04:50:34;3;3;
79689;PMS5003;69156;55.932;-3.238;2023-07-16T04:52:59;4;4;
79689;PMS5003;69156;55.932;-3.238;2023-07-16T04:55:25;4;4;
79689;PMS5003;69156;55.932;-3.238;2023-07-16T04:57:51;4;4;
79689;PMS5003;69156;55.932;-3.238;2023-07-16T05:00:16;4;4;
79689;PMS5003;69156;55.932;-3.238;2023-07-16T05:02:42;4;4;
79689;PMS5003;69156;55.932;-3.238;2023-07-16T05:05:08;4;4;
79689;PMS5003;69156;55.932;-3.238;2023-07-16T05:07:34;5;5;
79689;PMS5003;69156;55.932;-3.238;2023-07-16T05:10:00;4;3;
79689;PMS5003;69156;55.932;-3.238;2023-07-16T05:12:25;3;3;
79689;PMS5003;69156;55.932;-3.238;2023-07-16T05:14:51;5;4;
79689;PMS5003;69156;55.932;-3.238;2023-07-16T05:17:16;3;3;
79689;PMS5003;69156;55.932;-3.238;2023-07-16T05:19:41;3;3;
79689;PMS5003;69156;55.932;-3.238;2023-07-16T05:22:07;2;2;
79689;PMS5003;69156;55.932;-3.238;2023-07-16T05:24:33;3;3;
79689;PMS5003;69156;55.932;-3.238;2023-07-16T05:26:58;2;1;
79689;PMS5003;69156;55.932;-3.238;2023-07-16T05:29:24;1;1;
79689;PMS5003;69156;55.932;-3.238;2023-07-16T05:31:50;2;2;
79689;PMS5003;69156;55.932;-3.238;2023-07-16T05:34:15;2;2;
79689;PMS5003;69156;55.932;-3.238;2023-07-16T05:36:41;2;1;
79689;PMS5003;69156;55.932;-3.238;2023-07-16T05:39:06;1;1;
79689;PMS5003;69156;55.932;-3.238;2023-07-16T05:41:33;2;2;
79689;PMS5003;69156;55.932;-3.238;2023-07-16T05:43:58;2;2;
79689;PMS5003;69156;55.932;-3.238;2023-07-16T05:46:24;0;0;
79689;PMS5003;69156;55.932;-3.238;2023-07-16T05:48:49;1;1;
79689;PMS5003;69156;55.932;-3.238;2023-07-16T05:51:14;1;1;
79689;PMS5003;69156;55.932;-3.238;2023-07-16T05:53:40;1;1;
79689;PMS5003;69156;55.932;-3.238;2023-07-16T05:56:05;1;1;
79689;PMS5003;69156;55.932;-3.238;2023-07-16T05:58:31;1;1;
79689;PMS5003;69156;55.932;-3.238;2023-07-16T06:00:56;0;0;
79689;PMS5003;69156;55.932;-3.238;2023-07-16T06:03:22;1;1;
79689;PMS5003;69156;55.932;-3.238;2023-07-16T06:05:47;2;1;
79689;PMS5003;69156;55.932;-3.238;2023-07-16T06:08:13;1;1;
79689;PMS5003;69156;55.932;-3.238;2023-07-16T06:10:38;0;0;
79689;PMS5003;69156;55.932;-3.238;2023-07-16T06:13:03;0;0;
79689;PMS5003;69156;55.932;-3.238;2023-07-16T06:15:29;0;0;
79689;PMS5003;69156;55.932;-3.238;2023-07-16T06:17:54;0;0;
79689;PMS5003;69156;55.932;-3.238;2023-07-16T06:20:20;1;1;
79689;PMS5003;69156;55.932;-3.238;2023-07-16T06:22:45;1;1;
79689;PMS5003;69156;55.932;-3.238;2023-07-16T06:25:12;1;1;
79689;PMS5003;69156;55.932;-3.238;2023-07-16T06:27:37;1;1;
79689;PMS5003;69156;55.932;-3.238;2023-07-16T06:30:03;0;0;
79689;PMS5003;69156;55.932;-3.238;2023-07-16T06:32:28;0;0;
79689;PMS5003;69156;55.932;-3.238;2023-07-16T06:34:54;0;0;
79689;PMS5003;69156;55.932;-3.238;2023-07-16T06:37:19;0;0;
79689;PMS5003;69156;55.932;-3.238;2023-07-16T06:39:44;1;1;
79689;PMS5003;69156;55.932;-3.238;2023-07-16T06:42:10;0;0;
79689;PMS5003;69156;55.932;-3.238;2023-07-16T06:44:35;0;0;
79689;PMS5003;69156;55.932;-3.238;2023-07-16T06:47:01;0;0;
79689;PMS5003;69156;55.932;-3.238;2023-07-16T06:49:26;1;0;
79689;PMS5003;69156;55.932;-3.238;2023-07-16T06:51:52;0;0;
79689;PMS5003;69156;55.932;-3.238;2023-07-16T06:54:18;1;1;
79689;PMS5003;69156;55.932;-3.238;2023-07-16T06:56:43;0;0;
79689;PMS5003;69156;55.932;-3.238;2023-07-16T06:59:08;1;1;
79689;PMS5003;69156;55.932;-3.238;2023-07-16T07:01:34;0;0;
79689;PMS5003;69156;55.932;-3.238;2023-07-16T07:04:00;0;0;
79689;PMS5003;69156;55.932;-3.238;2023-07-16T07:06:25;0;0;
79689;PMS5003;69156;55.932;-3.238;2023-07-16T07:08:51;0;0;
79689;PMS5003;69156;55.932;-3.238;2023-07-16T07:11:17;1;0;
79689;PMS5003;69156;55.932;-3.238;2023-07-16T07:13:42;0;0;
79689;PMS5003;69156;55.932;-3.238;2023-07-16T07:16:08;0;0;
79689;PMS5003;69156;55.932;-3.238;2023-07-16T07:18:33;0;0;
79689;PMS5003;69156;55.932;-3.238;2023-07-16T07:20:59;0;0;
79689;PMS5003;69156;55.932;-3.238;2023-07-16T07:23:24;0;0;
79689;PMS5003;69156;55.932;-3.238;2023-07-16T07:25:50;0;0;
79689;PMS5003;69156;55.932;-3.238;2023-07-16T07:28:15;0;0;
79689;PMS5003;69156;55.932;-3.238;2023-07-16T07:30:40;0;0;
79689;PMS5003;69156;55.932;-3.238;2023-07-16T07:33:05;0;0;
79689;PMS5003;69156;55.932;-3.238;2023-07-16T07:35:31;1;1;
79689;PMS5003;69156;55.932;-3.238;2023-07-16T07:37:56;1;1;
79689;PMS5003;69156;55.932;-3.238;2023-07-16T07:40:22;0;0;
79689;PMS5003;69156;55.932;-3.238;2023-07-16T07:42:47;0;0;
79689;PMS5003;69156;55.932;-3.238;2023-07-16T07:45:13;0;0;
79689;PMS5003;69156;55.932;-3.238;2023-07-16T07:47:38;0;0;
79689;PMS5003;69156;55.932;-3.238;2023-07-16T07:50:04;0;0;
79689;PMS5003;69156;55.932;-3.238;2023-07-16T07:52:29;0;0;
79689;PMS5003;69156;55.932;-3.238;2023-07-16T07:54:54;0;0;
79689;PMS5003;69156;55.932;-3.238;2023-07-16T07:57:19;0;0;
79689;PMS5003;69156;55.932;-3.238;2023-07-16T07:59:44;0;0;
79689;PMS5003;69156;55.932;-3.238;2023-07-16T08:02:10;1;1;
79689;PMS5003;69156;55.932;-3.238;2023-07-16T08:04:35;0;0;
79689;PMS5003;69156;55.932;-3.238;2023-07-16T08:07:02;1;0;
79689;PMS5003;69156;55.932;-3.238;2023-07-16T08:09:27;0;0;
79689;PMS5003;69156;55.932;-3.238;2023-07-16T08:11:52;0;0;
79689;PMS5003;69156;55.932;-3.238;2023-07-16T08:14:18;0;0;
79689;PMS5003;69156;55.932;-3.238;2023-07-16T08:16:43;0;0;
79689;PMS5003;69156;55.932;-3.238;2023-07-16T08:19:09;0;0;
79689;PMS5003;69156;55.932;-3.238;2023-07-16T08:21:34;0;0;
79689;PMS5003;69156;55.932;-3.238;2023-07-16T08:24:00;0;0;
79689;PMS5003;69156;55.932;-3.238;2023-07-16T08:26:25;0;0;
79689;PMS5003;69156;55.932;-3.238;2023-07-16T08:28:51;1;1;
79689;PMS5003;69156;55.932;-3.238;2023-07-16T08:31:17;0;0;
79689;PMS5003;69156;55.932;-3.238;2023-07-16T08:33:42;0;0;
79689;PMS5003;69156;55.932;-3.238;2023-07-16T08:36:10;0;0;
79689;PMS5003;69156;55.932;-3.238;2023-07-16T08:38:33;0;0;
79689;PMS5003;69156;55.932;-3.238;2023-07-16T08:40:59;0;0;
79689;PMS5003;69156;55.932;-3.238;2023-07-16T08:43:24;0;0;
79689;PMS5003;69156;55.932;-3.238;2023-07-16T08:45:50;0;0;
79689;PMS5003;69156;55.932;-3.238;2023-07-16T08:48:16;0;0;
79689;PMS5003;69156;55.932;-3.238;2023-07-16T08:50:41;0;0;
79689;PMS5003;69156;55.932;-3.238;2023-07-16T08:53:07;0;0;
79689;PMS5003;69156;55.932;-3.238;2023-07-16T08:55:32;1;1;
79689;PMS5003;69156;55.932;-3.238;2023-07-16T08:57:58;0;0;
79689;PMS5003;69156;55.932;-3.238;2023-07-16T09:00:23;0;0;
79689;PMS5003;69156;55.932;-3.238;2023-07-16T09:02:49;0;0;
79689;PMS5003;69156;55.932;-3.238;2023-07-16T09:05:14;1;0;
79689;PMS5003;69156;55.932;-3.238;2023-07-16T09:07:39;0;0;
79689;PMS5003;69156;55.932;-3.238;2023-07-16T09:10:05;0;0;
79689;PMS5003;69156;55.932;-3.238;2023-07-16T09:12:30;0;0;
79689;PMS5003;69156;55.932;-3.238;2023-07-16T09:14:56;1;0;
79689;PMS5003;69156;55.932;-3.238;2023-07-16T09:17:22;0;0;
79689;PMS5003;69156;55.932;-3.238;2023-07-16T09:19:47;0;0;
79689;PMS5003;69156;55.932;-3.238;2023-07-16T09:22:13;0;0;
79689;PMS5003;69156;55.932;-3.238;2023-07-16T09:24:38;0;0;
79689;PMS5003;69156;55.932;-3.238;2023-07-16T09:27:04;0;0;
79689;PMS5003;69156;55.932;-3.238;2023-07-16T09:29:30;0;0;
79689;PMS5003;69156;55.932;-3.238;2023-07-16T09:31:55;0;0;
79689;PMS5003;69156;55.932;-3.238;2023-07-16T09:34:21;0;0;
79689;PMS5003;69156;55.932;-3.238;2023-07-16T09:36:46;0;0;
79689;PMS5003;69156;55.932;-3.238;2023-07-16T09:39:11;0;0;
79689;PMS5003;69156;55.932;-3.238;2023-07-16T09:41:36;0;0;
79689;PMS5003;69156;55.932;-3.238;2023-07-16T09:44:02;0;0;
79689;PMS5003;69156;55.932;-3.238;2023-07-16T09:46:28;0;0;
79689;PMS5003;69156;55.932;-3.238;2023-07-16T09:48:54;0;0;
79689;PMS5003;69156;55.932;-3.238;2023-07-16T09:51:20;0;0;
79689;PMS5003;69156;55.932;-3.238;2023-07-16T09:53:45;0;0;
79689;PMS5003;69156;55.932;-3.238;2023-07-16T09:56:11;0;0;
79689;PMS5003;69156;55.932;-3.238;2023-07-16T09:58:36;0;0;
79689;PMS5003;69156;55.932;-3.238;2023-07-16T10:01:02;1;1;
79689;PMS5003;69156;55.932;-3.238;2023-07-16T10:03:27;0;0;
79689;PMS5003;69156;55.932;-3.238;2023-07-16T10:05:52;0;0;
79689;PMS5003;69156;55.932;-3.238;2023-07-16T10:08:17;0;0;
79689;PMS5003;69156;55.932;-3.238;2023-07-16T10:10:43;0;0;
79689;PMS5003;69156;55.932;-3.238;2023-07-16T10:13:07;0;0;
79689;PMS5003;69156;55.932;-3.238;2023-07-16T10:15:33;0;0;
79689;PMS5003;69156;55.932;-3.238;2023-07-16T10:17:58;0;0;
79689;PMS5003;69156;55.932;-3.238;2023-07-16T10:20:32;0;0;
79689;PMS5003;69156;55.932;-3.238;2023-07-16T10:22:49;0;0;
79689;PMS5003;69156;55.932;-3.238;2023-07-16T10:25:22;1;0;
79689;PMS5003;69156;55.932;-3.238;2023-07-16T10:27:40;1;0;
79689;PMS5003;69156;55.932;-3.238;2023-07-16T10:30:05;0;0;
79689;PMS5003;69156;55.932;-3.238;2023-07-16T10:32:31;0;0;
79689;PMS5003;69156;55.932;-3.238;2023-07-16T10:34:56;0;0;
79689;PMS5003;69156;55.932;-3.238;2023-07-16T10:37:22;0;0;
79689;PMS5003;69156;55.932;-3.238;2023-07-16T10:39:47;1;1;
79689;PMS5003;69156;55.932;-3.238;2023-07-16T10:42:12;0;0;
79689;PMS5003;69156;55.932;-3.238;2023-07-16T10:44:38;0;0;
79689;PMS5003;69156;55.932;-3.238;2023-07-16T10:47:04;0;0;
79689;PMS5003;69156;55.932;-3.238;2023-07-16T10:49:29;0;0;
79689;PMS5003;69156;55.932;-3.238;2023-07-16T10:51:54;0;0;
79689;PMS5003;69156;55.932;-3.238;2023-07-16T10:54:19;0;0;
79689;PMS5003;69156;55.932;-3.238;2023-07-16T10:56:44;0;0;
79689;PMS5003;69156;55.932;-3.238;2023-07-16T10:59:11;0;0;
79689;PMS5003;69156;55.932;-3.238;2023-07-16T11:01:37;0;0;
79689;PMS5003;69156;55.932;-3.238;2023-07-16T11:04:02;0;0;
79689;PMS5003;69156;55.932;-3.238;2023-07-16T11:06:27;0;0;
79689;PMS5003;69156;55.932;-3.238;2023-07-16T11:08:54;0;0;
79689;PMS5003;69156;55.932;-3.238;2023-07-16T11:11:27;0;0;
79689;PMS5003;69156;55.932;-3.238;2023-07-16T11:13:46;0;0;
79689;PMS5003;69156;55.932;-3.238;2023-07-16T11:16:11;0;0;
79689;PMS5003;69156;55.932;-3.238;2023-07-16T11:18:37;0;0;
79689;PMS5003;69156;55.932;-3.238;2023-07-16T11:21:02;0;0;
79689;PMS5003;69156;55.932;-3.238;2023-07-16T11:23:27;0;0;
79689;PMS5003;69156;55.932;-3.238;2023-07-16T11:25:52;0;0;
79689;PMS5003;69156;55.932;-3.238;2023-07-16T11:28:18;0;0;
79689;PMS5003;69156;55.932;-3.238;2023-07-16T11:30:44;0;0;
79689;PMS5003;69156;55.932;-3.238;2023-07-16T11:33:10;0;0;
79689;PMS5003;69156;55.932;-3.238;2023-07-16T11:35:35;0;0;
79689;PMS5003;69156;55.932;-3.238;2023-07-16T11:38:01;0;0;
79689;PMS5003;69156;55.932;-3.238;2023-07-16T11:40:26;0;0;
79689;PMS5003;69156;55.932;-3.238;2023-07-16T11:42:52;0;0;
79689;PMS5003;69156;55.932;-3.238;2023-07-16T11:45:18;0;0;
79689;PMS5003;69156;55.932;-3.238;2023-07-16T11:47:44;0;0;
79689;PMS5003;69156;55.932;-3.238;2023-07-16T11:50:10;0;0;
79689;PMS5003;69156;55.932;-3.238;2023-07-16T11:52:36;0;0;
79689;PMS5003;69156;55.932;-3.238;2023-07-16T11:55:01;0;0;
79689;PMS5003;69156;55.932;-3.238;2023-07-16T11:57:27;0;0;
79689;PMS5003;69156;55.932;-3.238;2023-07-16T11:59:52;0;0;
79689;PMS5003;69156;55.932;-3.238;2023-07-16T12:02:17;0;0;
79689;PMS5003;69156;55.932;-3.238;2023-07-16T12:04:43;1;0;
79689;PMS5003;69156;55.932;-3.238;2023-07-16T12:07:08;0;0;
79689;PMS5003;69156;55.932;-3.238;2023-07-16T12:09:34;0;0;
79689;PMS5003;69156;55.932;-3.238;2023-07-16T12:11:59;0;0;
79689;PMS5003;69156;55.932;-3.238;2023-07-16T12:14:25;0;0;
79689;PMS5003;69156;55.932;-3.238;2023-07-16T12:16:50;0;0;
79689;PMS5003;69156;55.932;-3.238;2023-07-16T12:19:15;0;0;
79689;PMS5003;69156;55.932;-3.238;2023-07-16T12:21:41;0;0;
79689;PMS5003;69156;55.932;-3.238;2023-07-16T12:24:06;0;0;
79689;PMS5003;69156;55.932;-3.238;2023-07-16T12:26:32;0;0;
79689;PMS5003;69156;55.932;-3.238;2023-07-16T12:28:57;0;0;
79689;PMS5003;69156;55.932;-3.238;2023-07-16T12:31:22;0;0;
79689;PMS5003;69156;55.932;-3.238;2023-07-16T12:33:48;0;0;
79689;PMS5003;69156;55.932;-3.238;2023-07-16T12:36:14;1;0;
79689;PMS5003;69156;55.932;-3.238;2023-07-16T12:38:38;0;0;
79689;PMS5003;69156;55.932;-3.238;2023-07-16T12:41:04;0;0;
79689;PMS5003;69156;55.932;-3.238;2023-07-16T12:43:29;0;0;
79689;PMS5003;69156;55.932;-3.238;2023-07-16T12:45:55;0;0;
79689;PMS5003;69156;55.932;-3.238;2023-07-16T12:48:20;0;0;
79689;PMS5003;69156;55.932;-3.238;2023-07-16T12:50:46;0;0;
79689;PMS5003;69156;55.932;-3.238;2023-07-16T12:53:11;0;0;
79689;PMS5003;69156;55.932;-3.238;2023-07-16T12:55:37;0;0;
79689;PMS5003;69156;55.932;-3.238;2023-07-16T12:58:02;0;0;
79689;PMS5003;69156;55.932;-3.238;2023-07-16T13:00:27;0;0;
79689;PMS5003;69156;55.932;-3.238;2023-07-16T13:02:53;0;0;
79689;PMS5003;69156;55.932;-3.238;2023-07-16T13:05:18;0;0;
79689;PMS5003;69156;55.932;-3.238;2023-07-16T13:07:43;0;0;
79689;PMS5003;69156;55.932;-3.238;2023-07-16T13:10:09;0;0;
79689;PMS5003;69156;55.932;-3.238;2023-07-16T13:12:33;0;0;
79689;PMS5003;69156;55.932;-3.238;2023-07-16T13:14:59;0;0;
79689;PMS5003;69156;55.932;-3.238;2023-07-16T13:17:25;0;0;
79689;PMS5003;69156;55.932;-3.238;2023-07-16T13:19:50;0;0;
79689;PMS5003;69156;55.932;-3.238;2023-07-16T13:22:16;0;0;
79689;PMS5003;69156;55.932;-3.238;2023-07-16T13:24:41;0;0;
79689;PMS5003;69156;55.932;-3.238;2023-07-16T13:27:06;0;0;
79689;PMS5003;69156;55.932;-3.238;2023-07-16T13:29:31;0;0;
79689;PMS5003;69156;55.932;-3.238;2023-07-16T13:31:56;0;0;
79689;PMS5003;69156;55.932;-3.238;2023-07-16T13:34:22;0;0;
79689;PMS5003;69156;55.932;-3.238;2023-07-16T13:36:47;0;0;
79689;PMS5003;69156;55.932;-3.238;2023-07-16T13:39:13;0;0;
79689;PMS5003;69156;55.932;-3.238;2023-07-16T13:41:39;0;0;
79689;PMS5003;69156;55.932;-3.238;2023-07-16T13:44:04;0;0;
79689;PMS5003;69156;55.932;-3.238;2023-07-16T13:46:29;0;0;
79689;PMS5003;69156;55.932;-3.238;2023-07-16T13:48:55;1;1;
79689;PMS5003;69156;55.932;-3.238;2023-07-16T13:51:20;0;0;
79689;PMS5003;69156;55.932;-3.238;2023-07-16T13:53:45;0;0;
79689;PMS5003;69156;55.932;-3.238;2023-07-16T13:56:12;0;0;
79689;PMS5003;69156;55.932;-3.238;2023-07-16T13:58:37;0;0;
79689;PMS5003;69156;55.932;-3.238;2023-07-16T14:01:03;1;1;
79689;PMS5003;69156;55.932;-3.238;2023-07-16T14:03:28;0;0;
79689;PMS5003;69156;55.932;-3.238;2023-07-16T14:05:53;0;0;
79689;PMS5003;69156;55.932;-3.238;2023-07-16T14:08:19;1;1;
79689;PMS5003;69156;55.932;-3.238;2023-07-16T14:10:44;0;0;
79689;PMS5003;69156;55.932;-3.238;2023-07-16T14:13:09;0;0;
79689;PMS5003;69156;55.932;-3.238;2023-07-16T14:15:35;0;0;
79689;PMS5003;69156;55.932;-3.238;2023-07-16T14:18:00;2;1;
79689;PMS5003;69156;55.932;-3.238;2023-07-16T14:20:26;1;1;
79689;PMS5003;69156;55.932;-3.238;2023-07-16T14:22:51;1;1;
79689;PMS5003;69156;55.932;-3.238;2023-07-16T14:25:17;1;1;
79689;PMS5003;69156;55.932;-3.238;2023-07-16T14:27:42;1;1;
79689;PMS5003;69156;55.932;-3.238;2023-07-16T14:30:08;0;0;
79689;PMS5003;69156;55.932;-3.238;2023-07-16T14:32:33;0;0;
79689;PMS5003;69156;55.932;-3.238;2023-07-16T14:34:58;0;0;
79689;PMS5003;69156;55.932;-3.238;2023-07-16T14:37:24;0;0;
79689;PMS5003;69156;55.932;-3.238;2023-07-16T14:39:50;1;1;
79689;PMS5003;69156;55.932;-3.238;2023-07-16T14:42:15;0;0;
79689;PMS5003;69156;55.932;-3.238;2023-07-16T14:44:40;1;1;
79689;PMS5003;69156;55.932;-3.238;2023-07-16T14:47:06;1;1;
79689;PMS5003;69156;55.932;-3.238;2023-07-16T14:49:31;0;0;
79689;PMS5003;69156;55.932;-3.238;2023-07-16T14:51:56;0;0;
79689;PMS5003;69156;55.932;-3.238;2023-07-16T14:54:22;1;1;
79689;PMS5003;69156;55.932;-3.238;2023-07-16T14:56:48;1;1;
79689;PMS5003;69156;55.932;-3.238;2023-07-16T14:59:14;1;1;
79689;PMS5003;69156;55.932;-3.238;2023-07-16T15:01:39;1;1;
79689;PMS5003;69156;55.932;-3.238;2023-07-16T15:04:04;1;1;
79689;PMS5003;69156;55.932;-3.238;2023-07-16T15:06:30;1;1;
79689;PMS5003;69156;55.932;-3.238;2023-07-16T15:08:55;0;0;
79689;PMS5003;69156;55.932;-3.238;2023-07-16T15:11:21;1;1;
79689;PMS5003;69156;55.932;-3.238;2023-07-16T15:13:47;0;0;
79689;PMS5003;69156;55.932;-3.238;2023-07-16T15:16:12;2;1;
79689;PMS5003;69156;55.932;-3.238;2023-07-16T15:18:37;0;0;
79689;PMS5003;69156;55.932;-3.238;2023-07-16T15:21:03;1;1;
79689;PMS5003;69156;55.932;-3.238;2023-07-16T15:23:28;1;1;
79689;PMS5003;69156;55.932;-3.238;2023-07-16T15:25:54;2;2;
79689;PMS5003;69156;55.932;-3.238;2023-07-16T15:28:19;1;1;
79689;PMS5003;69156;55.932;-3.238;2023-07-16T15:30:46;1;1;
79689;PMS5003;69156;55.932;-3.238;2023-07-16T15:33:11;2;2;
79689;PMS5003;69156;55.932;-3.238;2023-07-16T15:35:36;3;2;
79689;PMS5003;69156;55.932;-3.238;2023-07-16T15:38:02;1;1;
79689;PMS5003;69156;55.932;-3.238;2023-07-16T15:40:28;1;1;
79689;PMS5003;69156;55.932;-3.238;2023-07-16T15:42:54;1;1;
79689;PMS5003;69156;55.932;-3.238;2023-07-16T15:45:19;1;1;
79689;PMS5003;69156;55.932;-3.238;2023-07-16T15:47:45;0;0;
79689;PMS5003;69156;55.932;-3.238;2023-07-16T15:50:10;0;0;
79689;PMS5003;69156;55.932;-3.238;2023-07-16T15:52:36;1;1;
79689;PMS5003;69156;55.932;-3.238;2023-07-16T15:55:01;1;1;
79689;PMS5003;69156;55.932;-3.238;2023-07-16T15:57:26;2;2;
79689;PMS5003;69156;55.932;-3.238;2023-07-16T15:59:51;1;0;
79689;PMS5003;69156;55.932;-3.238;2023-07-16T16:02:16;1;1;
79689;PMS5003;69156;55.932;-3.238;2023-07-16T16:04:42;2;1;
79689;PMS5003;69156;55.932;-3.238;2023-07-16T16:07:07;2;1;
79689;PMS5003;69156;55.932;-3.238;2023-07-16T16:09:33;1;1;
79689;PMS5003;69156;55.932;-3.238;2023-07-16T16:11:58;1;0;
79689;PMS5003;69156;55.932;-3.238;2023-07-16T16:14:23;1;1;
79689;PMS5003;69156;55.932;-3.238;2023-07-16T16:16:49;0;0;
79689;PMS5003;69156;55.932;-3.238;2023-07-16T16:19:18;0;0;
79689;PMS5003;69156;55.932;-3.238;2023-07-16T16:21:40;1;1;